Time;durP1;ratioP1;P1;durP2;ratioP2;P2;SDS_P1;SDS_P2;PMS_P1;PMS_P2;Temp;Humidity;BMP_temperature;BMP_pressure;BME280_temperature;BME280_humidity;BME280_pressure;Samples;Min_cycle;Max_cycle;Signal;HPM_P1;HPM_P2
2023/03/13 00:01:33;;;;;;;8.47;5.40;;;5.80;99.90;;;;;;5007353;28;20804;-71
2023/03/13 00:04:00;;;;;;;8.03;6.00;;;5.80;99.90;;;;;;5007381;28;20328;-71
2023/03/13 00:06:32;;;;;;;13.80;5.80;;;5.80;99.90;;;;;;5007442;28;20210;-72
2023/03/13 00:09:00;;;;;;;14.30;6.50;;;5.90;99.90;;;;;;5007591;28;20328;-71
2023/03/13 00:11:27;;;;;;;10.07;5.77;;;5.90;99.90;;;;;;5000507;28;20217;-72
2023/03/13 00:13:55;;;;;;;10.73;6.07;;;6.00;99.90;;;;;;4987671;28;20306;-71
2023/03/13 00:16:22;;;;;;;12.47;6.60;;;6.00;99.90;;;;;;4988035;28;20305;-71
2023/03/13 00:18:51;;;;;;;12.70;6.20;;;6.10;99.90;;;;;;4987914;28;20213;-71
2023/03/13 00:21:20;;;;;;;9.60;6.03;;;6.00;99.90;;;;;;5002626;28;20249;-71
2023/03/13 00:23:48;;;;;;;10.30;5.87;;;6.00;99.90;;;;;;5006977;28;20230;-72
2023/03/13 00:26:16;;;;;;;9.03;5.73;;;6.00;99.90;;;;;;5006784;28;20649;-72
2023/03/13 00:28:44;;;;;;;12.50;6.60;;;6.10;99.90;;;;;;5007055;28;20216;-72
2023/03/13 00:31:13;;;;;;;10.17;5.87;;;6.10;99.90;;;;;;5006837;28;20205;-71
2023/03/13 00:33:41;;;;;;;9.57;6.17;;;6.20;99.90;;;;;;5014718;28;20242;-73
2023/03/13 00:36:11;;;;;;;9.13;6.03;;;6.20;99.90;;;;;;5013006;28;20283;-72
2023/03/13 00:38:39;;;;;;;13.93;6.70;;;6.10;99.90;;;;;;5026868;28;20215;-71
2023/03/13 00:41:10;;;;;;;10.53;6.10;;;6.20;99.90;;;;;;5022718;28;20300;-71
2023/03/13 00:43:38;;;;;;;10.37;6.20;;;6.20;99.90;;;;;;5006645;28;20194;-69
2023/03/13 00:46:05;;;;;;;10.10;5.90;;;6.20;99.90;;;;;;5006978;28;20571;-70
2023/03/13 00:48:33;;;;;;;9.07;6.00;;;6.20;99.90;;;;;;5007037;28;20209;-70
2023/03/13 00:51:00;;;;;;;17.43;6.90;;;6.20;99.90;;;;;;5006719;28;20220;-70
2023/03/13 00:53:28;;;;;;;14.83;6.00;;;6.30;99.90;;;;;;5006528;28;20296;-70
2023/03/13 00:55:57;;;;;;;10.00;5.73;;;6.20;99.90;;;;;;5007215;28;20214;-70
2023/03/13 00:58:28;;;;;;;11.97;5.53;;;6.20;99.90;;;;;;5006904;28;20267;-69
2023/03/13 01:00:55;;;;;;;13.33;6.03;;;6.10;99.90;;;;;;5006641;28;20220;-69
2023/03/13 01:03:25;;;;;;;12.00;5.90;;;6.00;99.90;;;;;;5007070;28;20209;-69
2023/03/13 01:06:01;;;;;;;11.13;5.87;;;6.00;99.90;;;;;;5007115;28;20241;-69
2023/03/13 01:08:29;;;;;;;10.50;6.20;;;5.90;99.90;;;;;;5006263;28;20683;-72
2023/03/13 01:11:00;;;;;;;12.60;5.97;;;5.90;99.90;;;;;;5005534;28;20217;-71
2023/03/13 01:13:29;;;;;;;8.60;5.53;;;5.90;99.90;;;;;;5006642;28;20210;-71
2023/03/13 01:15:56;;;;;;;12.57;5.93;;;5.90;99.90;;;;;;5006937;28;20213;-71
2023/03/13 01:18:23;;;;;;;9.63;5.60;;;5.90;99.90;;;;;;5007113;28;20220;-69
2023/03/13 01:20:50;;;;;;;9.00;6.00;;;5.90;99.90;;;;;;5006372;28;20293;-69
2023/03/13 01:23:17;;;;;;;14.40;6.13;;;5.90;99.90;;;;;;5006617;28;20805;-69
2023/03/13 01:25:44;;;;;;;9.87;5.53;;;5.90;99.90;;;;;;5005979;28;20324;-69
2023/03/13 01:28:11;;;;;;;12.03;6.20;;;5.90;99.90;;;;;;5006451;28;20209;-69
2023/03/13 01:30:39;;;;;;;9.13;5.97;;;6.00;99.90;;;;;;5006448;28;20202;-69
2023/03/13 01:33:06;;;;;;;12.03;5.97;;;6.10;99.90;;;;;;5005963;28;20198;-69
2023/03/13 01:35:33;;;;;;;12.90;6.23;;;6.10;99.90;;;;;;5007520;28;20312;-69
2023/03/13 01:38:00;;;;;;;8.40;5.53;;;6.20;99.90;;;;;;5028361;28;20227;-69
2023/03/13 01:40:26;;;;;;;13.00;5.40;;;6.20;99.90;;;;;;5027914;28;20210;-69
2023/03/13 01:42:55;;;;;;;9.97;5.70;;;6.30;99.90;;;;;;5002750;28;20212;-69
2023/03/13 01:45:56;;;;;;;8.60;5.40;;;6.30;99.90;;;;;;5010143;28;20319;-69
2023/03/13 01:48:28;;;;;;;9.70;4.90;;;6.20;99.90;;;;;;5010198;28;20204;-69
2023/03/13 01:50:58;;;;;;;11.07;5.17;;;6.30;99.90;;;;;;5010250;28;20197;-69
2023/03/13 01:53:26;;;;;;;12.07;5.23;;;6.40;99.90;;;;;;5010006;28;21054;-69
2023/03/13 01:55:53;;;;;;;14.33;5.33;;;6.50;99.90;;;;;;5010297;28;20308;-69
2023/03/13 01:58:21;;;;;;;12.33;5.17;;;6.40;99.90;;;;;;5009840;28;20472;-69
2023/03/13 02:00:49;;;;;;;9.37;5.37;;;6.40;99.90;;;;;;5009641;28;20316;-70
2023/03/13 02:03:20;;;;;;;9.67;5.37;;;6.40;99.90;;;;;;5009831;28;20309;-70
2023/03/13 02:05:49;;;;;;;9.67;5.13;;;6.30;99.90;;;;;;5006188;28;20593;-69
2023/03/13 02:08:19;;;;;;;10.67;5.00;;;6.30;99.90;;;;;;5009051;28;20209;-69
2023/03/13 02:10:51;;;;;;;10.17;4.83;;;6.20;99.90;;;;;;5009881;28;20201;-70
2023/03/13 02:13:20;;;;;;;10.47;4.80;;;6.10;99.90;;;;;;5009203;28;20660;-71
2023/03/13 02:15:48;;;;;;;10.47;5.20;;;6.20;99.90;;;;;;5009589;28;20292;-72
2023/03/13 02:18:17;;;;;;;7.90;4.63;;;6.10;99.90;;;;;;5009630;28;20256;-70
2023/03/13 02:20:44;;;;;;;8.47;5.10;;;6.10;99.90;;;;;;5009586;28;20586;-71
2023/03/13 02:23:18;;;;;;;9.20;4.80;;;6.00;99.90;;;;;;5009323;28;20221;-70
2023/03/13 02:25:48;;;;;;;9.43;4.73;;;6.10;99.90;;;;;;4997311;28;20331;-71
2023/03/13 02:28:19;;;;;;;11.97;5.53;;;6.10;99.90;;;;;;5009562;28;20308;-71
2023/03/13 02:30:48;;;;;;;9.13;5.00;;;6.00;99.90;;;;;;5009385;28;20213;-70
2023/03/13 02:33:16;;;;;;;8.93;5.23;;;6.00;99.90;;;;;;5009411;28;20214;-69
2023/03/13 02:35:45;;;;;;;10.53;4.90;;;6.00;99.90;;;;;;5008704;28;20680;-70
2023/03/13 02:38:16;;;;;;;8.07;5.00;;;6.00;99.90;;;;;;5009256;28;20296;-69
2023/03/13 02:40:48;;;;;;;8.87;5.00;;;6.10;99.90;;;;;;5009240;28;20198;-69
2023/03/13 02:43:18;;;;;;;10.97;4.70;;;6.00;99.90;;;;;;5008801;28;20236;-69
2023/03/13 02:46:01;;;;;;;12.73;5.20;;;6.00;99.90;;;;;;5008637;28;20245;-69
2023/03/13 02:48:34;;;;;;;8.93;5.13;;;6.00;99.90;;;;;;5008031;28;20201;-70
2023/03/13 02:51:03;;;;;;;12.23;5.20;;;6.10;99.90;;;;;;5009154;28;20284;-70
2023/03/13 02:53:31;;;;;;;13.93;5.47;;;6.10;99.90;;;;;;5008878;28;20301;-72
2023/03/13 02:56:00;;;;;;;9.07;4.30;;;6.10;99.90;;;;;;5008363;28;20210;-71
2023/03/13 02:58:27;;;;;;;13.87;5.20;;;6.10;99.90;;;;;;5008000;28;20213;-71
2023/03/13 03:00:53;;;;;;;11.17;4.27;;;6.10;99.90;;;;;;5008948;28;20296;-72
2023/03/13 03:03:20;;;;;;;8.67;4.63;;;6.10;99.90;;;;;;5008362;28;20212;-71
2023/03/13 03:05:47;;;;;;;11.43;4.40;;;6.10;99.90;;;;;;5008579;28;20235;-72
2023/03/13 03:08:14;;;;;;;9.90;4.57;;;6.10;99.90;;;;;;5028142;28;20211;-72
2023/03/13 03:10:41;;;;;;;11.90;4.27;;;6.10;99.90;;;;;;5007777;28;20292;-72
2023/03/13 03:13:09;;;;;;;7.73;4.07;;;6.10;99.90;;;;;;4988858;28;20317;-72
2023/03/13 03:15:36;;;;;;;14.37;4.53;;;6.10;99.90;;;;;;4988709;28;20283;-71
2023/03/13 03:18:03;;;;;;;10.53;4.43;;;6.10;99.90;;;;;;4989084;28;20240;-72
2023/03/13 03:20:30;;;;;;;6.93;4.07;;;6.10;99.90;;;;;;4986577;28;20208;-71
2023/03/13 03:22:57;;;;;;;13.07;4.33;;;6.20;99.90;;;;;;4987121;28;20619;-72
2023/03/13 03:25:24;;;;;;;8.83;4.10;;;6.20;99.90;;;;;;4982125;28;20310;-71
2023/03/13 03:27:50;;;;;;;7.63;4.07;;;6.20;99.90;;;;;;4986803;28;20281;-71
2023/03/13 03:30:19;;;;;;;8.43;3.97;;;6.20;99.90;;;;;;4986079;28;20246;-71
2023/03/13 03:32:46;;;;;;;16.10;4.37;;;6.20;99.90;;;;;;4979284;28;20285;-71
2023/03/13 03:35:13;;;;;;;12.53;4.17;;;6.20;99.90;;;;;;4976410;28;20262;-71
2023/03/13 03:37:40;;;;;;;12.00;3.93;;;6.20;99.90;;;;;;4985986;28;20218;-71
2023/03/13 03:40:08;;;;;;;11.37;4.20;;;6.20;99.90;;;;;;4986675;28;20254;-71
2023/03/13 03:42:36;;;;;;;7.43;3.60;;;6.20;99.90;;;;;;4986481;28;20214;-71
2023/03/13 03:45:04;;;;;;;8.43;3.63;;;6.20;99.90;;;;;;4966908;28;20644;-71
2023/03/13 03:47:32;;;;;;;9.27;3.80;;;6.20;99.90;;;;;;4983464;28;20238;-71
2023/03/13 03:50:02;;;;;;;9.80;4.33;;;6.20;99.90;;;;;;4986305;28;20285;-71
2023/03/13 03:52:29;;;;;;;13.27;4.17;;;6.20;99.90;;;;;;4985590;28;20217;-71
2023/03/13 03:54:56;;;;;;;11.27;3.87;;;6.20;99.90;;;;;;4969192;28;20705;-72
2023/03/13 03:57:24;;;;;;;10.57;3.73;;;6.20;99.90;;;;;;4979765;28;20212;-70
2023/03/13 03:59:50;;;;;;;13.30;3.80;;;6.20;99.90;;;;;;4987341;28;20340;-70
2023/03/13 04:02:17;;;;;;;11.70;3.90;;;6.20;99.90;;;;;;4987018;28;20238;-70
2023/03/13 04:04:46;;;;;;;11.43;3.50;;;6.20;99.90;;;;;;4987211;28;20293;-71
2023/03/13 04:07:12;;;;;;;13.50;3.93;;;6.20;99.90;;;;;;4987815;28;20329;-71
2023/03/13 04:09:39;;;;;;;10.87;3.97;;;6.20;99.90;;;;;;4999056;28;20244;-72
2023/03/13 04:12:07;;;;;;;9.93;3.73;;;6.20;99.90;;;;;;5000652;28;20248;-71
2023/03/13 04:14:34;;;;;;;10.47;3.47;;;6.20;99.90;;;;;;5007254;28;20738;-71
2023/03/13 04:17:01;;;;;;;15.07;4.00;;;6.20;99.90;;;;;;5007668;28;20321;-71
2023/03/13 04:19:28;;;;;;;13.30;4.23;;;6.20;99.90;;;;;;5007585;28;20201;-71
2023/03/13 04:21:56;;;;;;;13.40;3.63;;;6.20;99.90;;;;;;5007495;28;20205;-71
2023/03/13 04:24:23;;;;;;;17.17;3.63;;;6.20;99.90;;;;;;5007445;28;20260;-71
2023/03/13 04:26:49;;;;;;;10.03;3.90;;;6.30;99.90;;;;;;5007330;28;20232;-71
2023/03/13 04:29:16;;;;;;;10.27;3.83;;;6.30;99.90;;;;;;5007147;28;20312;-71
2023/03/13 04:31:43;;;;;;;8.10;3.50;;;6.30;99.90;;;;;;5007099;28;20301;-71
2023/03/13 04:34:10;;;;;;;9.43;3.50;;;6.30;99.90;;;;;;5006961;28;20229;-71
2023/03/13 04:36:37;;;;;;;12.97;3.60;;;6.30;99.90;;;;;;5012695;28;20240;-71
2023/03/13 04:39:05;;;;;;;12.03;3.70;;;6.30;99.90;;;;;;5007035;28;20217;-71
2023/03/13 04:41:32;;;;;;;13.07;3.53;;;6.30;99.90;;;;;;5007225;28;20296;-71
2023/03/13 04:43:59;;;;;;;13.63;4.03;;;6.30;99.90;;;;;;5007021;28;20209;-71
2023/03/13 04:46:26;;;;;;;14.07;3.43;;;6.30;99.90;;;;;;5007291;28;20263;-71
2023/03/13 04:48:52;;;;;;;19.67;4.30;;;6.30;99.90;;;;;;5006971;28;20247;-71
2023/03/13 04:51:19;;;;;;;12.33;3.80;;;6.30;99.90;;;;;;5007361;28;20300;-71
2023/03/13 04:53:46;;;;;;;14.83;3.97;;;6.30;99.90;;;;;;5007338;28;20296;-71
2023/03/13 04:56:24;;;;;;;13.03;4.13;;;6.30;99.90;;;;;;5007351;28;20213;-71
2023/03/13 04:58:52;;;;;;;16.20;3.63;;;6.40;99.90;;;;;;5006764;28;20200;-71
2023/03/13 05:01:19;;;;;;;13.90;3.60;;;6.40;99.90;;;;;;5006742;28;20300;-71
2023/03/13 05:03:46;;;;;;;15.40;4.70;;;6.40;99.90;;;;;;5006628;28;20239;-71
2023/03/13 05:06:13;;;;;;;18.30;4.37;;;6.40;99.90;;;;;;5006946;28;20248;-71
2023/03/13 05:08:40;;;;;;;13.67;3.87;;;6.30;99.90;;;;;;5006637;28;20336;-71
2023/03/13 05:11:07;;;;;;;10.17;4.00;;;6.40;99.90;;;;;;5008812;28;20296;-71
2023/03/13 05:13:35;;;;;;;18.90;4.27;;;6.40;99.90;;;;;;5010639;28;20312;-71
2023/03/13 05:16:02;;;;;;;14.33;4.27;;;6.40;99.90;;;;;;5010869;28;20300;-71
2023/03/13 05:18:29;;;;;;;14.47;3.90;;;6.40;99.90;;;;;;5010514;28;20216;-71
2023/03/13 05:20:56;;;;;;;9.97;3.53;;;6.50;99.90;;;;;;5010754;28;20212;-71
2023/03/13 05:23:23;;;;;;;12.27;4.43;;;6.50;99.90;;;;;;5010812;28;20237;-71
2023/03/13 05:25:50;;;;;;;11.97;3.63;;;6.60;99.90;;;;;;5010287;28;20320;-71
2023/03/13 05:28:17;;;;;;;14.30;4.60;;;6.60;99.90;;;;;;5010181;28;20264;-71
2023/03/13 05:30:45;;;;;;;16.20;4.30;;;6.60;99.90;;;;;;5010694;28;20209;-71
2023/03/13 05:33:12;;;;;;;11.70;3.80;;;6.60;99.90;;;;;;5010214;28;20316;-71
2023/03/13 05:35:39;;;;;;;12.40;3.77;;;6.60;99.90;;;;;;5010185;28;20217;-71
2023/03/13 05:38:06;;;;;;;14.27;4.10;;;6.70;99.90;;;;;;5010296;28;20213;-71
2023/03/13 05:40:33;;;;;;;17.27;4.10;;;6.70;99.90;;;;;;5010425;28;20237;-71
2023/03/13 05:43:00;;;;;;;17.60;4.77;;;6.70;99.90;;;;;;5009955;28;20217;-71
2023/03/13 05:45:27;;;;;;;15.57;4.20;;;6.70;99.90;;;;;;5009949;28;20332;-71
2023/03/13 05:47:55;;;;;;;15.87;3.77;;;6.70;99.90;;;;;;5010349;28;20305;-71
2023/03/13 05:50:22;;;;;;;19.17;4.60;;;6.60;99.90;;;;;;5009886;28;20210;-71
2023/03/13 05:52:49;;;;;;;14.33;3.80;;;6.60;99.90;;;;;;5008901;28;20522;-71
2023/03/13 05:55:16;;;;;;;13.80;4.20;;;6.60;99.90;;;;;;5009067;28;20321;-71
2023/03/13 05:57:45;;;;;;;14.23;4.20;;;6.60;99.90;;;;;;5009811;28;20763;-71
2023/03/13 06:00:14;;;;;;;19.90;4.10;;;6.50;99.90;;;;;;5010101;28;20213;-71
2023/03/13 06:02:41;;;;;;;14.37;3.87;;;6.50;99.90;;;;;;5009735;28;20739;-71
2023/03/13 06:05:10;;;;;;;14.73;3.67;;;6.50;99.90;;;;;;5010146;28;20209;-70
2023/03/13 06:07:37;;;;;;;13.87;4.30;;;6.50;99.90;;;;;;5009872;28;20210;-71
2023/03/13 06:10:05;;;;;;;15.47;3.93;;;6.50;99.90;;;;;;5009668;28;20348;-71
2023/03/13 06:12:32;;;;;;;19.10;4.60;;;6.50;99.90;;;;;;5009444;28;20214;-70
2023/03/13 06:14:59;;;;;;;17.90;3.87;;;6.50;99.90;;;;;;5009664;28;20212;-70
2023/03/13 06:17:26;;;;;;;16.27;4.30;;;6.50;99.90;;;;;;5009722;28;20300;-70
2023/03/13 06:19:53;;;;;;;17.17;4.13;;;6.50;99.90;;;;;;5009720;28;20208;-71
2023/03/13 06:22:21;;;;;;;16.63;3.87;;;6.50;99.90;;;;;;5009318;28;20231;-71
2023/03/13 06:24:48;;;;;;;20.90;4.70;;;6.50;99.90;;;;;;5009480;28;20300;-72
2023/03/13 06:27:15;;;;;;;17.70;4.00;;;6.50;99.90;;;;;;5009370;28;20241;-71
2023/03/13 06:29:42;;;;;;;17.20;4.50;;;6.50;99.90;;;;;;5008502;28;20292;-71
2023/03/13 06:32:09;;;;;;;14.90;4.57;;;6.60;99.90;;;;;;5009097;28;20201;-72
2023/03/13 06:34:36;;;;;;;13.80;4.00;;;6.50;99.90;;;;;;5009059;28;20260;-71
2023/03/13 06:37:03;;;;;;;15.73;4.27;;;6.50;99.90;;;;;;5009200;28;20288;-71
2023/03/13 06:39:31;;;;;;;16.53;4.63;;;6.60;99.90;;;;;;5009160;28;20211;-71
2023/03/13 06:41:58;;;;;;;17.67;4.27;;;6.60;99.90;;;;;;4997895;28;20246;-69
2023/03/13 06:44:26;;;;;;;16.67;3.87;;;6.60;99.90;;;;;;4989455;28;20321;-69
2023/03/13 06:46:52;;;;;;;12.70;4.43;;;6.60;99.90;;;;;;4989660;28;20234;-69
2023/03/13 06:49:19;;;;;;;14.00;4.27;;;6.60;99.90;;;;;;4989572;28;20313;-69
2023/03/13 06:51:46;;;;;;;18.77;4.30;;;6.60;99.90;;;;;;4989351;28;20236;-70
2023/03/13 06:54:13;;;;;;;10.80;3.97;;;6.60;99.90;;;;;;4989367;28;20206;-70
2023/03/13 06:56:41;;;;;;;17.53;4.40;;;6.60;99.90;;;;;;4988946;28;20329;-71
2023/03/13 06:59:08;;;;;;;14.03;3.53;;;6.60;99.90;;;;;;4989482;28;20293;-70
2023/03/13 07:01:35;;;;;;;14.90;4.00;;;6.60;99.90;;;;;;4989426;28;20297;-71
2023/03/13 07:04:02;;;;;;;15.50;4.20;;;6.70;99.90;;;;;;4988892;28;20293;-71
2023/03/13 07:06:29;;;;;;;16.07;4.63;;;6.70;99.90;;;;;;4992580;28;20221;-71
2023/03/13 07:08:56;;;;;;;15.17;4.10;;;6.70;99.90;;;;;;4988984;28;20241;-71
2023/03/13 07:11:23;;;;;;;15.20;4.10;;;6.70;99.90;;;;;;4995565;28;20210;-71
2023/03/13 07:13:55;;;;;;;15.27;4.30;;;6.80;99.90;;;;;;5008253;28;20209;-71
2023/03/13 07:16:22;;;;;;;16.73;4.20;;;6.80;99.90;;;;;;5008872;28;20198;-71
2023/03/13 07:18:49;;;;;;;18.90;4.47;;;6.80;99.90;;;;;;5008685;28;20209;-71
2023/03/13 07:21:15;;;;;;;14.80;3.90;;;6.80;99.90;;;;;;5008473;28;20253;-70
2023/03/13 07:23:42;;;;;;;15.57;4.37;;;6.80;99.90;;;;;;5008691;28;20289;-71
2023/03/13 07:26:12;;;;;;;15.70;3.93;;;6.70;99.90;;;;;;5008464;28;20332;-71
2023/03/13 07:28:39;;;;;;;18.47;4.07;;;6.70;99.90;;;;;;5008189;28;20297;-70
2023/03/13 07:31:10;;;;;;;11.70;3.90;;;6.70;99.90;;;;;;5008276;28;20296;-70
2023/03/13 07:33:37;;;;;;;16.33;4.00;;;6.70;99.90;;;;;;5008097;28;21132;-70
2023/03/13 07:36:05;;;;;;;12.23;3.93;;;6.80;99.90;;;;;;5010244;28;20221;-70
2023/03/13 07:38:32;;;;;;;17.33;3.60;;;6.80;99.90;;;;;;5007474;28;20727;-71
2023/03/13 07:40:59;;;;;;;15.17;4.23;;;6.80;99.90;;;;;;5005097;28;20217;-70
2023/03/13 07:43:26;;;;;;;17.13;4.50;;;6.90;99.90;;;;;;4988116;28;20209;-70
2023/03/13 07:45:55;;;;;;;12.00;3.47;;;6.90;99.90;;;;;;4988074;28;20206;-70
2023/03/13 07:48:25;;;;;;;19.00;4.97;;;6.90;99.90;;;;;;4988166;28;20301;-71
2023/03/13 07:50:54;;;;;;;20.90;4.73;;;6.90;99.90;;;;;;4988208;28;20661;-70
2023/03/13 07:53:20;;;;;;;13.27;3.87;;;6.90;99.90;;;;;;4988401;28;20206;-70
2023/03/13 07:55:58;;;;;;;13.23;4.00;;;6.90;99.90;;;;;;4988183;28;20214;-71
2023/03/13 07:58:26;;;;;;;8.90;3.53;;;7.10;99.90;;;;;;4987971;28;20527;-70
2023/03/13 08:00:54;;;;;;;16.93;4.40;;;7.10;99.90;;;;;;5002984;28;20215;-71
2023/03/13 08:03:23;;;;;;;17.40;4.23;;;7.10;99.90;;;;;;5007569;28;20212;-70
2023/03/13 08:05:58;;;;;;;12.30;3.80;;;7.10;99.90;;;;;;5007845;28;20214;-70
2023/03/13 08:08:25;;;;;;;16.63;4.33;;;7.10;99.90;;;;;;5007233;28;20212;-70
2023/03/13 08:10:52;;;;;;;13.50;3.90;;;7.20;99.90;;;;;;5005846;28;20292;-71
2023/03/13 08:13:19;;;;;;;15.23;4.13;;;7.20;99.90;;;;;;4988100;28;20210;-71
2023/03/13 08:15:45;;;;;;;15.27;3.87;;;7.20;99.90;;;;;;4987989;28;20313;-70
2023/03/13 08:18:12;;;;;;;16.00;4.30;;;7.20;99.90;;;;;;4988014;28;20210;-70
2023/03/13 08:20:40;;;;;;;16.57;4.13;;;7.20;99.90;;;;;;4987756;28;20338;-70
2023/03/13 08:23:07;;;;;;;16.30;4.53;;;7.30;99.90;;;;;;5001295;28;20304;-70
2023/03/13 08:25:34;;;;;;;17.93;4.13;;;7.30;99.90;;;;;;5007314;28;20236;-70
2023/03/13 08:28:01;;;;;;;16.13;4.70;;;7.50;99.90;;;;;;5006974;28;20243;-70
2023/03/13 08:30:28;;;;;;;12.10;3.70;;;7.50;99.90;;;;;;5007156;28;20235;-71
2023/03/13 08:32:55;;;;;;;10.47;3.40;;;7.60;99.90;;;;;;5006776;28;20340;-70
2023/03/13 08:35:22;;;;;;;13.93;3.70;;;7.60;99.90;;;;;;5007125;28;20233;-71
2023/03/13 08:37:50;;;;;;;9.70;3.10;;;7.60;99.90;;;;;;5006778;28;20213;-70
2023/03/13 08:40:17;;;;;;;17.47;4.03;;;7.70;99.90;;;;;;5006907;28;20296;-71
2023/03/13 08:42:44;;;;;;;12.27;3.93;;;7.80;99.90;;;;;;5006913;28;20241;-70
2023/03/13 08:45:11;;;;;;;14.80;3.90;;;7.80;99.90;;;;;;5006834;28;20307;-70
2023/03/13 08:47:38;;;;;;;13.67;3.80;;;7.90;99.90;;;;;;5007078;28;20320;-70
2023/03/13 08:50:06;;;;;;;13.40;3.73;;;8.00;99.90;;;;;;5006919;28;20681;-70
2023/03/13 08:52:32;;;;;;;14.97;3.53;;;8.00;99.90;;;;;;5006658;28;20676;-70
2023/03/13 08:55:01;;;;;;;12.97;4.00;;;8.00;99.90;;;;;;5007159;28;21107;-70
2023/03/13 08:57:28;;;;;;;9.87;3.30;;;8.00;99.90;;;;;;5006727;28;20384;-70
2023/03/13 08:59:54;;;;;;;13.83;3.23;;;7.90;99.90;;;;;;5006968;28;20210;-70
2023/03/13 09:02:21;;;;;;;12.83;3.90;;;8.00;99.90;;;;;;5006944;28;20292;-70
2023/03/13 09:04:48;;;;;;;10.47;4.00;;;8.20;99.90;;;;;;5006486;28;20256;-70
2023/03/13 09:07:16;;;;;;;15.33;4.03;;;8.20;99.90;;;;;;5006687;28;20817;-70
2023/03/13 09:09:44;;;;;;;7.80;3.67;;;8.20;99.90;;;;;;5006395;28;20237;-70
2023/03/13 09:12:12;;;;;;;11.57;3.47;;;8.30;99.90;;;;;;5006934;28;20209;-70
2023/03/13 09:14:39;;;;;;;7.40;3.30;;;8.30;99.90;;;;;;5006424;28;20719;-70
2023/03/13 09:17:07;;;;;;;10.23;3.20;;;8.40;99.90;;;;;;5006851;28;20268;-70
2023/03/13 09:19:34;;;;;;;16.73;4.30;;;8.60;99.90;;;;;;5006304;28;20205;-70
2023/03/13 09:22:01;;;;;;;11.53;4.10;;;8.60;99.90;;;;;;5006271;28;20206;-70
2023/03/13 09:24:28;;;;;;;6.83;3.33;;;8.60;99.90;;;;;;5006498;28;20300;-70
2023/03/13 09:26:55;;;;;;;7.67;3.17;;;8.70;99.90;;;;;;5006785;28;20328;-70
2023/03/13 09:29:23;;;;;;;10.00;3.30;;;8.80;99.90;;;;;;5005973;28;20720;-70
2023/03/13 09:31:50;;;;;;;13.43;3.40;;;8.80;99.90;;;;;;5006843;28;20354;-70
2023/03/13 09:34:17;;;;;;;8.77;2.97;;;8.80;99.90;;;;;;5006394;28;20237;-71
2023/03/13 09:36:44;;;;;;;6.87;2.70;;;9.00;99.90;;;;;;5006448;28;20293;-70
2023/03/13 09:39:10;;;;;;;7.03;2.73;;;8.90;99.90;;;;;;5006669;28;20205;-71
2023/03/13 09:41:43;;;;;;;10.27;2.93;;;8.90;99.90;;;;;;5006498;28;20304;-70
2023/03/13 09:44:18;;;;;;;6.57;3.03;;;9.00;99.90;;;;;;5006440;28;20297;-70
2023/03/13 09:46:57;;;;;;;8.83;2.73;;;9.00;99.90;;;;;;5006551;28;20304;-71
2023/03/13 09:49:30;;;;;;;8.97;2.67;;;9.10;99.90;;;;;;5006329;28;20194;-70
2023/03/13 09:52:05;;;;;;;9.13;2.80;;;9.10;99.90;;;;;;5006785;28;20232;-71
2023/03/13 09:54:38;;;;;;;7.77;2.73;;;9.10;99.90;;;;;;5006446;28;20277;-70
2023/03/13 09:57:12;;;;;;;7.10;2.57;;;9.20;99.90;;;;;;5008730;28;20213;-70
2023/03/13 09:59:47;;;;;;;7.10;2.60;;;9.10;99.90;;;;;;5009671;28;20954;-71
2023/03/13 10:02:26;;;;;;;8.53;2.53;;;9.20;99.90;;;;;;5010213;28;20197;-70
2023/03/13 10:05:00;;;;;;;6.67;2.50;;;9.40;99.90;;;;;;5010183;28;20197;-70
2023/03/13 10:07:27;;;;;;;6.07;2.37;;;9.30;99.90;;;;;;5009933;28;20305;-70
2023/03/13 10:09:54;;;;;;;5.27;2.20;;;9.30;99.90;;;;;;5009641;28;20272;-71
2023/03/13 10:12:24;;;;;;;6.97;2.73;;;9.30;99.90;;;;;;4995631;28;20319;-70
2023/03/13 10:15:03;;;;;;;7.40;2.67;;;9.30;99.90;;;;;;4997144;28;20292;-70
2023/03/13 10:17:36;;;;;;;5.40;2.77;;;9.30;99.90;;;;;;5009724;28;20202;-70
2023/03/13 10:20:16;;;;;;;5.13;2.60;;;9.40;99.90;;;;;;5009720;28;20296;-70
2023/03/13 10:22:47;;;;;;;6.93;2.40;;;9.40;99.90;;;;;;5009791;28;20229;-70
2023/03/13 10:25:27;;;;;;;4.93;2.40;;;9.40;99.90;;;;;;5009560;28;20260;-70
2023/03/13 10:27:54;;;;;;;8.10;2.40;;;9.40;99.90;;;;;;5009244;28;20649;-70
2023/03/13 10:30:25;;;;;;;7.67;2.40;;;9.50;99.90;;;;;;5009395;28;20292;-70
2023/03/13 10:32:59;;;;;;;6.40;2.30;;;9.50;99.90;;;;;;5009181;28;20841;-70
2023/03/13 10:35:32;;;;;;;5.93;2.30;;;9.60;99.90;;;;;;5009433;28;20281;-70
2023/03/13 10:38:03;;;;;;;4.80;2.40;;;9.80;99.90;;;;;;5027589;28;20874;-70
2023/03/13 10:40:30;;;;;;;6.90;2.30;;;9.70;99.90;;;;;;5029119;28;20197;-70
2023/03/13 10:43:02;;;;;;;4.63;2.50;;;9.90;99.90;;;;;;5009468;28;20308;-70
2023/03/13 10:45:34;;;;;;;7.33;2.20;;;9.90;99.90;;;;;;5009442;28;20392;-71
2023/03/13 10:48:04;;;;;;;4.73;2.30;;;9.90;99.90;;;;;;5009096;28;20222;-70
2023/03/13 10:50:34;;;;;;;4.20;2.57;;;10.00;99.90;;;;;;5009560;28;20271;-70
2023/03/13 10:53:19;;;;;;;6.50;2.07;;;10.10;99.90;;;;;;5009117;28;20212;-71
2023/03/13 10:55:47;;;;;;;3.50;2.20;;;10.10;99.90;;;;;;5009254;28;20194;-71
2023/03/13 10:58:20;;;;;;;7.63;2.30;;;10.30;99.90;;;;;;5009206;28;20244;-71
2023/03/13 11:00:48;;;;;;;3.37;2.23;;;10.30;99.90;;;;;;5008951;28;20255;-71
2023/03/13 11:03:20;;;;;;;2.93;1.80;;;10.40;99.90;;;;;;5008849;28;20300;-71
2023/03/13 11:05:56;;;;;;;6.10;2.50;;;10.50;99.90;;;;;;5008596;28;20212;-71
2023/03/13 11:08:25;;;;;;;3.67;1.70;;;10.60;99.90;;;;;;5007164;28;20861;-71
2023/03/13 11:10:56;;;;;;;5.97;2.10;;;10.70;99.90;;;;;;5008610;28;20627;-71
2023/03/13 11:13:34;;;;;;;2.77;1.50;;;11.00;99.90;;;;;;5008588;28;20276;-71
2023/03/13 11:16:10;;;;;;;1.90;1.70;;;11.30;99.90;;;;;;5008693;28;20193;-71
2023/03/13 11:18:44;;;;;;;1.77;1.53;;;11.20;99.90;;;;;;5008082;28;20648;-71
2023/03/13 11:21:20;;;;;;;2.60;1.70;;;11.30;99.90;;;;;;5008386;28;20193;-71
2023/03/13 11:23:54;;;;;;;2.57;1.57;;;11.30;99.90;;;;;;5008034;28;20731;-71
2023/03/13 11:26:32;;;;;;;2.40;1.87;;;11.40;99.90;;;;;;5008419;28;20232;-71
2023/03/13 11:29:05;;;;;;;3.57;1.60;;;11.50;99.90;;;;;;5007925;28;20382;-71
2023/03/13 11:31:35;;;;;;;2.40;1.30;;;11.60;99.90;;;;;;5008451;28;20827;-71
2023/03/13 11:34:11;;;;;;;2.47;1.20;;;11.70;99.90;;;;;;5008090;28;20312;-71
2023/03/13 11:36:44;;;;;;;3.73;1.40;;;11.80;99.90;;;;;;5015039;28;20287;-71
2023/03/13 11:39:36;;;;;;;4.30;1.47;;;11.80;99.90;;;;;;5027853;28;20284;-73
2023/03/13 11:42:12;;;;;;;1.70;1.20;;;11.90;99.90;;;;;;5016223;28;20304;-71
2023/03/13 11:44:53;;;;;;;2.37;1.30;;;11.90;99.90;;;;;;5007581;28;20229;-71
2023/03/13 11:47:40;;;;;;;1.90;1.80;;;11.90;99.90;;;;;;5007720;28;20692;-71
2023/03/13 11:50:32;;;;;;;2.10;1.90;;;11.90;99.90;;;;;;4988227;28;20704;-72
2023/03/13 11:53:12;;;;;;;1.10;0.97;;;11.90;99.90;;;;;;4988686;28;20230;-71
2023/03/13 11:55:54;;;;;;;1.83;0.93;;;12.00;99.90;;;;;;4988281;28;20674;-71
2023/03/13 11:58:32;;;;;;;1.10;1.00;;;12.10;99.90;;;;;;4988007;28;20304;-72
2023/03/13 12:01:03;;;;;;;1.63;1.07;;;12.00;99.90;;;;;;4988222;28;20237;-72
2023/03/13 12:03:37;;;;;;;2.07;1.10;;;12.00;99.90;;;;;;4987643;28;20209;-72
2023/03/13 12:06:11;;;;;;;1.20;0.97;;;12.00;99.90;;;;;;4988183;28;20237;-72
2023/03/13 12:08:43;;;;;;;1.80;1.47;;;12.00;99.90;;;;;;5005198;28;20304;-72
2023/03/13 12:11:16;;;;;;;1.83;1.10;;;12.00;99.90;;;;;;5003415;28;20202;-72
2023/03/13 12:13:46;;;;;;;1.63;0.73;;;12.20;99.90;;;;;;4988057;28;20229;-71
2023/03/13 12:16:16;;;;;;;1.10;1.00;;;12.30;99.90;;;;;;4987876;28;20300;-72
2023/03/13 12:18:45;;;;;;;1.13;0.90;;;12.50;99.90;;;;;;4999480;28;20253;-72
2023/03/13 12:21:19;;;;;;;1.90;0.80;;;12.50;99.90;;;;;;5007229;28;20644;-71
2023/03/13 12:23:50;;;;;;;1.00;0.90;;;12.60;99.90;;;;;;5007475;28;20202;-72
2023/03/13 12:26:19;;;;;;;1.60;0.90;;;12.50;99.90;;;;;;5007083;28;20409;-71
2023/03/13 12:28:51;;;;;;;2.17;0.93;;;12.60;99.90;;;;;;5006735;28;20244;-72
2023/03/13 12:31:25;;;;;;;1.03;0.97;;;12.80;99.90;;;;;;5007117;28;20293;-72
2023/03/13 12:33:57;;;;;;;0.80;0.80;;;13.00;99.90;;;;;;5006923;28;20229;-72
2023/03/13 12:36:33;;;;;;;2.03;0.80;;;13.10;99.90;;;;;;5012325;28;20315;-71
2023/03/13 12:39:14;;;;;;;1.07;1.07;;;13.20;99.90;;;;;;5026670;28;20279;-71
2023/03/13 12:41:44;;;;;;;2.60;0.77;;;13.50;99.90;;;;;;5015979;28;20296;-72
2023/03/13 12:44:18;;;;;;;1.03;1.00;;;13.40;99.90;;;;;;5006468;28;20212;-72
2023/03/13 12:46:47;;;;;;;1.17;1.10;;;13.40;99.90;;;;;;5007067;28;20295;-72
2023/03/13 12:49:54;;;;;;;2.93;1.90;;;13.50;99.90;;;;;;5006999;28;20325;-72
2023/03/13 12:52:52;;;;;;;1.93;0.70;;;13.80;99.90;;;;;;5006319;28;20284;-72
2023/03/13 12:55:50;;;;;;;3.40;2.57;;;14.20;99.90;;;;;;5007120;28;20279;-72
2023/03/13 12:58:47;;;;;;;1.07;1.07;;;14.50;99.90;;;;;;5006911;28;20622;-72
2023/03/13 13:01:21;;;;;;;0.60;0.60;;;14.50;99.90;;;;;;5007053;28;20189;-72
2023/03/13 13:03:53;;;;;;;1.17;0.90;;;14.70;99.90;;;;;;5006794;28;20273;-72